Terminal Aerodrome Forecast
Issued by NWS Tuscon, AZ

Home | Current Version | Previous Version | Text Only | Print | Product List | Glossary On
Versions: 1 2 3 4 5 6 7 8 9 10 11 12 13 14
000
FTUS45 KTWC 030200 AAA
TAFDUG
TAF AMD
KDUG 030220Z 0302/0324 20013KT P6SM SCT030 BKN050
      TEMPO 0302/0306 -SHRA SCT025 BKN035
     FM030800 21010KT P6SM SCT030 BKN045 BKN100
     FM031300 22006KT P6SM SCT040 SCT080 BKN200
     FM031800 20015G24KT P6SM SCT050 SCT120=

USA.gov is the U.S. government's official web portal to all federal, state and local government web resources and services.